sensor_id;sensor_type;location;lat;lon;timestamp;pressure;altitude;pressure_sealevel;temperature;humidity
23318;BME280;11831;55.918;37.746;2023-04-22T00:02:17;98826.25;;;9.98;0.00
23318;BME280;11831;55.918;37.746;2023-04-22T00:04:44;98819.59;;;10.01;0.00
23318;BME280;11831;55.918;37.746;2023-04-22T00:07:14;98828.91;;;9.98;0.00
23318;BME280;11831;55.918;37.746;2023-04-22T00:09:40;98827.34;;;9.85;0.00
23318;BME280;11831;55.918;37.746;2023-04-22T00:12:07;98829.13;;;9.80;0.00
23318;BME280;11831;55.918;37.746;2023-04-22T00:14:34;98827.84;;;9.71;0.00
23318;BME280;11831;55.918;37.746;2023-04-22T00:17:00;98833.28;;;9.76;0.00
23318;BME280;11831;55.918;37.746;2023-04-22T00:19:26;98833.63;;;9.79;0.00
23318;BME280;11831;55.918;37.746;2023-04-22T00:21:53;98837.22;;;9.73;0.00
23318;BME280;11831;55.918;37.746;2023-04-22T00:24:19;98834.91;;;9.77;0.00
23318;BME280;11831;55.918;37.746;2023-04-22T00:26:45;98829.75;;;9.58;0.00
23318;BME280;11831;55.918;37.746;2023-04-22T00:29:11;98835.19;;;9.63;0.00
23318;BME280;11831;55.918;37.746;2023-04-22T00:31:37;98831.75;;;9.51;0.00
23318;BME280;11831;55.918;37.746;2023-04-22T00:34:03;98836.47;;;9.61;0.00
23318;BME280;11831;55.918;37.746;2023-04-22T00:36:29;98830.00;;;9.45;0.00
23318;BME280;11831;55.918;37.746;2023-04-22T00:38:56;98834.31;;;9.34;0.00
23318;BME280;11831;55.918;37.746;2023-04-22T00:41:22;98844.31;;;9.27;0.00
23318;BME280;11831;55.918;37.746;2023-04-22T00:43:49;98841.03;;;9.37;0.00
23318;BME280;11831;55.918;37.746;2023-04-22T00:46:17;98844.66;;;9.31;0.00
23318;BME280;11831;55.918;37.746;2023-04-22T00:48:43;98834.66;;;9.15;0.00
23318;BME280;11831;55.918;37.746;2023-04-22T00:51:10;98826.22;;;9.06;0.00
23318;BME280;11831;55.918;37.746;2023-04-22T00:53:36;98826.31;;;9.11;0.00
23318;BME280;11831;55.918;37.746;2023-04-22T00:56:02;98829.94;;;9.05;0.00
23318;BME280;11831;55.918;37.746;2023-04-22T00:58:28;98827.00;;;9.18;0.00
23318;BME280;11831;55.918;37.746;2023-04-22T01:00:55;98823.75;;;9.16;0.00
23318;BME280;11831;55.918;37.746;2023-04-22T01:03:21;98822.88;;;8.99;0.00
23318;BME280;11831;55.918;37.746;2023-04-22T01:05:48;98826.44;;;9.05;0.00
23318;BME280;11831;55.918;37.746;2023-04-22T01:08:15;98829.00;;;9.23;0.00
23318;BME280;11831;55.918;37.746;2023-04-22T01:10:41;98822.97;;;9.27;0.00
23318;BME280;11831;55.918;37.746;2023-04-22T01:13:07;98831.53;;;9.18;0.00
23318;BME280;11831;55.918;37.746;2023-04-22T01:15:34;98825.50;;;9.11;0.00
23318;BME280;11831;55.918;37.746;2023-04-22T01:18:00;98819.37;;;9.10;0.00
23318;BME280;11831;55.918;37.746;2023-04-22T01:20:27;98816.03;;;9.03;0.00
23318;BME280;11831;55.918;37.746;2023-04-22T01:22:54;98816.38;;;8.95;0.00
23318;BME280;11831;55.918;37.746;2023-04-22T01:25:24;98816.38;;;8.95;0.00
23318;BME280;11831;55.918;37.746;2023-04-22T01:27:51;98819.37;;;9.10;0.00
23318;BME280;11831;55.918;37.746;2023-04-22T01:30:18;98812.87;;;8.83;0.00
23318;BME280;11831;55.918;37.746;2023-04-22T01:32:44;98815.19;;;8.67;0.00
23318;BME280;11831;55.918;37.746;2023-04-22T01:35:11;98810.22;;;8.83;0.00
23318;BME280;11831;55.918;37.746;2023-04-22T01:37:37;98811.16;;;8.65;0.00
23318;BME280;11831;55.918;37.746;2023-04-22T01:40:03;98806.63;;;8.65;0.00
23318;BME280;11831;55.918;37.746;2023-04-22T01:42:30;98805.13;;;8.81;0.00
23318;BME280;11831;55.918;37.746;2023-04-22T01:44:57;98809.50;;;8.87;0.00
23318;BME280;11831;55.918;37.746;2023-04-22T01:47:23;98820.66;;;8.84;0.00
23318;BME280;11831;55.918;37.746;2023-04-22T01:49:50;98816.59;;;8.70;0.00
23318;BME280;11831;55.918;37.746;2023-04-22T01:52:18;98812.66;;;8.73;0.00
23318;BME280;11831;55.918;37.746;2023-04-22T01:54:45;98814.75;;;8.70;0.00
23318;BME280;11831;55.918;37.746;2023-04-22T01:57:12;98812.97;;;8.53;0.00
23318;BME280;11831;55.918;37.746;2023-04-22T01:59:39;98826.78;;;8.61;0.00
23318;BME280;11831;55.918;37.746;2023-04-22T02:02:05;98817.88;;;8.67;0.00
23318;BME280;11831;55.918;37.746;2023-04-22T02:04:31;98820.59;;;8.37;0.00
23318;BME280;11831;55.918;37.746;2023-04-22T02:06:57;98818.06;;;8.43;0.00
23318;BME280;11831;55.918;37.746;2023-04-22T02:09:23;98818.41;;;8.46;0.00
23318;BME280;11831;55.918;37.746;2023-04-22T02:11:49;98815.81;;;8.28;0.00
23318;BME280;11831;55.918;37.746;2023-04-22T02:14:15;98821.50;;;8.31;0.00
23318;BME280;11831;55.918;37.746;2023-04-22T02:16:42;98821.56;;;8.25;0.00
23318;BME280;11831;55.918;37.746;2023-04-22T02:19:08;98824.16;;;8.31;0.00
23318;BME280;11831;55.918;37.746;2023-04-22T02:21:34;98821.63;;;8.36;0.00
23318;BME280;11831;55.918;37.746;2023-04-22T02:24:00;98819.44;;;8.33;0.00
23318;BME280;11831;55.918;37.746;2023-04-22T02:26:27;98809.06;;;8.25;0.00
23318;BME280;11831;55.918;37.746;2023-04-22T02:28:53;98817.47;;;8.40;0.00
23318;BME280;11831;55.918;37.746;2023-04-22T02:31:19;98823.41;;;8.24;0.00
23318;BME280;11831;55.918;37.746;2023-04-22T02:33:45;98821.06;;;8.46;0.00
23318;BME280;11831;55.918;37.746;2023-04-22T02:36:11;98828.50;;;8.26;0.00
23318;BME280;11831;55.918;37.746;2023-04-22T02:38:37;98822.34;;;8.44;0.00
23318;BME280;11831;55.918;37.746;2023-04-22T02:41:03;98821.44;;;8.50;0.00
23318;BME280;11831;55.918;37.746;2023-04-22T02:43:30;98820.03;;;8.35;0.00
23318;BME280;11831;55.918;37.746;2023-04-22T02:45:56;98821.50;;;8.31;0.00
23318;BME280;11831;55.918;37.746;2023-04-22T02:48:22;98821.88;;;8.47;0.00
23318;BME280;11831;55.918;37.746;2023-04-22T02:50:48;98828.72;;;8.43;0.00
23318;BME280;11831;55.918;37.746;2023-04-22T02:53:14;98824.75;;;8.33;0.00
23318;BME280;11831;55.918;37.746;2023-04-22T02:55:41;98820.44;;;8.32;0.00
23318;BME280;11831;55.918;37.746;2023-04-22T02:58:07;98823.75;;;8.46;0.00
23318;BME280;11831;55.918;37.746;2023-04-22T03:00:33;98834.78;;;8.61;0.00
23318;BME280;11831;55.918;37.746;2023-04-22T03:03:00;98829.41;;;8.50;0.00
23318;BME280;11831;55.918;37.746;2023-04-22T03:05:26;98831.53;;;8.59;0.00
23318;BME280;11831;55.918;37.746;2023-04-22T03:07:52;98831.78;;;8.58;0.00
23318;BME280;11831;55.918;37.746;2023-04-22T03:10:18;98834.63;;;8.56;0.00
23318;BME280;11831;55.918;37.746;2023-04-22T03:12:45;98828.88;;;8.59;0.00
23318;BME280;11831;55.918;37.746;2023-04-22T03:15:11;98835.25;;;8.58;0.00
23318;BME280;11831;55.918;37.746;2023-04-22T03:17:37;98828.66;;;8.84;0.00
23318;BME280;11831;55.918;37.746;2023-04-22T03:20:04;98829.91;;;8.70;0.00
23318;BME280;11831;55.918;37.746;2023-04-22T03:22:31;98838.50;;;8.60;0.00
23318;BME280;11831;55.918;37.746;2023-04-22T03:24:57;98835.16;;;9.23;0.00
23318;BME280;11831;55.918;37.746;2023-04-22T03:27:23;98834.91;;;9.25;0.00
23318;BME280;11831;55.918;37.746;2023-04-22T03:29:49;98833.53;;;8.99;0.00
23318;BME280;11831;55.918;37.746;2023-04-22T03:32:15;98839.78;;;9.05;0.00
23318;BME280;11831;55.918;37.746;2023-04-22T03:34:41;98836.66;;;9.08;0.00
23318;BME280;11831;55.918;37.746;2023-04-22T03:37:08;98843.84;;;9.19;0.00
23318;BME280;11831;55.918;37.746;2023-04-22T03:39:34;98848.72;;;9.22;0.00
23318;BME280;11831;55.918;37.746;2023-04-22T03:42:00;98852.44;;;9.21;0.00
23318;BME280;11831;55.918;37.746;2023-04-22T03:44:26;98848.81;;;9.27;0.00
23318;BME280;11831;55.918;37.746;2023-04-22T03:46:53;98849.63;;;9.51;0.00
23318;BME280;11831;55.918;37.746;2023-04-22T03:49:19;98854.59;;;9.47;0.00
23318;BME280;11831;55.918;37.746;2023-04-22T03:51:45;98853.28;;;9.61;0.00
23318;BME280;11831;55.918;37.746;2023-04-22T03:54:11;98856.56;;;9.52;0.00
23318;BME280;11831;55.918;37.746;2023-04-22T03:56:38;98855.59;;;9.70;0.00
23318;BME280;11831;55.918;37.746;2023-04-22T03:59:04;98859.16;;;9.75;0.00
23318;BME280;11831;55.918;37.746;2023-04-22T04:01:30;98863.69;;;9.75;0.00
23318;BME280;11831;55.918;37.746;2023-04-22T04:03:57;98867.03;;;9.93;0.00
23318;BME280;11831;55.918;37.746;2023-04-22T04:06:23;98859.25;;;10.49;0.00
23318;BME280;11831;55.918;37.746;2023-04-22T04:08:49;98869.28;;;10.42;0.00
23318;BME280;11831;55.918;37.746;2023-04-22T04:11:15;98870.16;;;10.31;0.00
23318;BME280;11831;55.918;37.746;2023-04-22T04:13:41;98875.41;;;10.25;0.00
23318;BME280;11831;55.918;37.746;2023-04-22T04:16:07;98867.84;;;10.51;0.00
23318;BME280;11831;55.918;37.746;2023-04-22T04:18:34;98867.69;;;10.91;0.00
23318;BME280;11831;55.918;37.746;2023-04-22T04:21:00;98872.63;;;10.99;0.00
23318;BME280;11831;55.918;37.746;2023-04-22T04:23:26;98877.97;;;10.99;0.00
23318;BME280;11831;55.918;37.746;2023-04-22T04:25:52;98871.22;;;11.30;0.00
23318;BME280;11831;55.918;37.746;2023-04-22T04:28:18;98877.12;;;11.32;0.00
23318;BME280;11831;55.918;37.746;2023-04-22T04:30:44;98873.66;;;11.32;0.00
23318;BME280;11831;55.918;37.746;2023-04-22T04:33:10;98880.81;;;11.26;0.00
23318;BME280;11831;55.918;37.746;2023-04-22T04:35:37;98878.28;;;11.36;0.00
23318;BME280;11831;55.918;37.746;2023-04-22T04:38:04;98879.00;;;11.32;0.00
23318;BME280;11831;55.918;37.746;2023-04-22T04:40:31;98874.00;;;11.18;0.00
23318;BME280;11831;55.918;37.746;2023-04-22T04:42:57;98874.63;;;11.42;0.00
23318;BME280;11831;55.918;37.746;2023-04-22T04:45:27;98876.00;;;11.28;0.00
23318;BME280;11831;55.918;37.746;2023-04-22T04:47:53;98871.81;;;11.54;0.00
23318;BME280;11831;55.918;37.746;2023-04-22T04:50:20;98864.03;;;11.14;0.00
23318;BME280;11831;55.918;37.746;2023-04-22T04:52:47;98872.28;;;11.68;0.00
23318;BME280;11831;55.918;37.746;2023-04-22T04:55:16;98873.06;;;12.34;0.00
23318;BME280;11831;55.918;37.746;2023-04-22T04:57:45;98880.09;;;12.40;0.00
23318;BME280;11831;55.918;37.746;2023-04-22T05:00:12;98886.94;;;12.26;0.00
23318;BME280;11831;55.918;37.746;2023-04-22T05:02:41;98882.72;;;12.35;0.00
23318;BME280;11831;55.918;37.746;2023-04-22T05:05:07;98879.38;;;12.23;0.00
23318;BME280;11831;55.918;37.746;2023-04-22T05:07:33;98889.00;;;12.46;0.00
23318;BME280;11831;55.918;37.746;2023-04-22T05:10:00;98883.41;;;12.52;0.00
23318;BME280;11831;55.918;37.746;2023-04-22T05:12:26;98888.31;;;12.55;0.00
23318;BME280;11831;55.918;37.746;2023-04-22T05:14:52;98877.44;;;12.72;0.00
23318;BME280;11831;55.918;37.746;2023-04-22T05:17:18;98888.41;;;13.02;0.00
23318;BME280;11831;55.918;37.746;2023-04-22T05:19:45;98886.72;;;13.23;0.00
23318;BME280;11831;55.918;37.746;2023-04-22T05:22:11;98896.03;;;13.16;0.00
23318;BME280;11831;55.918;37.746;2023-04-22T05:24:37;98893.66;;;13.56;0.00
23318;BME280;11831;55.918;37.746;2023-04-22T05:27:03;98895.59;;;13.71;0.00
23318;BME280;11831;55.918;37.746;2023-04-22T05:29:29;98892.72;;;13.41;0.00
23318;BME280;11831;55.918;37.746;2023-04-22T05:31:56;98899.53;;;13.53;0.00
23318;BME280;11831;55.918;37.746;2023-04-22T05:34:22;98886.47;;;13.72;0.00
23318;BME280;11831;55.918;37.746;2023-04-22T05:36:48;98894.03;;;13.80;0.00
23318;BME280;11831;55.918;37.746;2023-04-22T05:39:15;98894.78;;;13.71;0.00
23318;BME280;11831;55.918;37.746;2023-04-22T05:41:41;98891.03;;;13.72;0.00
23318;BME280;11831;55.918;37.746;2023-04-22T05:44:07;98888.97;;;13.94;0.00
23318;BME280;11831;55.918;37.746;2023-04-22T05:46:33;98888.87;;;13.74;0.00
23318;BME280;11831;55.918;37.746;2023-04-22T05:48:59;98898.09;;;13.83;0.00
23318;BME280;11831;55.918;37.746;2023-04-22T05:51:25;98890.66;;;14.10;0.00
23318;BME280;11831;55.918;37.746;2023-04-22T05:53:51;98890.06;;;13.93;0.00
23318;BME280;11831;55.918;37.746;2023-04-22T05:56:18;98891.81;;;14.40;0.00
23318;BME280;11831;55.918;37.746;2023-04-22T05:58:45;98897.25;;;14.45;0.00
23318;BME280;11831;55.918;37.746;2023-04-22T06:01:12;98896.19;;;14.97;0.00
23318;BME280;11831;55.918;37.746;2023-04-22T06:03:38;98896.22;;;15.07;0.00
23318;BME280;11831;55.918;37.746;2023-04-22T06:06:04;98895.91;;;14.63;0.00
23318;BME280;11831;55.918;37.746;2023-04-22T06:08:31;98898.91;;;14.71;0.00
23318;BME280;11831;55.918;37.746;2023-04-22T06:10:57;98897.53;;;14.69;0.00
23318;BME280;11831;55.918;37.746;2023-04-22T06:13:23;98903.44;;;14.50;0.00
23318;BME280;11831;55.918;37.746;2023-04-22T06:15:50;98893.53;;;14.71;0.00
23318;BME280;11831;55.918;37.746;2023-04-22T06:18:16;98898.38;;;14.74;0.00
23318;BME280;11831;55.918;37.746;2023-04-22T06:20:42;98895.94;;;14.88;0.00
23318;BME280;11831;55.918;37.746;2023-04-22T06:23:08;98902.41;;;14.92;0.00
23318;BME280;11831;55.918;37.746;2023-04-22T06:25:34;98896.19;;;14.56;0.00
23318;BME280;11831;55.918;37.746;2023-04-22T06:28:00;98888.19;;;14.04;0.00
23318;BME280;11831;55.918;37.746;2023-04-22T06:30:26;98892.69;;;14.66;0.00
23318;BME280;11831;55.918;37.746;2023-04-22T06:32:53;98884.09;;;14.79;0.00
23318;BME280;11831;55.918;37.746;2023-04-22T06:35:20;98886.50;;;14.60;0.00
23318;BME280;11831;55.918;37.746;2023-04-22T06:37:47;98884.06;;;14.69;0.00
23318;BME280;11831;55.918;37.746;2023-04-22T06:40:13;98884.59;;;14.45;0.00
23318;BME280;11831;55.918;37.746;2023-04-22T06:42:40;98886.78;;;14.74;0.00
23318;BME280;11831;55.918;37.746;2023-04-22T06:45:08;98872.78;;;15.17;0.00
23318;BME280;11831;55.918;37.746;2023-04-22T06:47:38;98874.38;;;15.23;0.00
23318;BME280;11831;55.918;37.746;2023-04-22T06:50:05;98875.69;;;15.41;0.00
23318;BME280;11831;55.918;37.746;2023-04-22T06:52:32;98871.53;;;15.84;0.00
23318;BME280;11831;55.918;37.746;2023-04-22T06:54:58;98870.81;;;15.59;0.00
23318;BME280;11831;55.918;37.746;2023-04-22T06:57:24;98871.78;;;15.88;0.00
23318;BME280;11831;55.918;37.746;2023-04-22T06:59:51;98872.87;;;15.92;0.00
23318;BME280;11831;55.918;37.746;2023-04-22T07:02:17;98873.50;;;16.28;0.00
23318;BME280;11831;55.918;37.746;2023-04-22T07:04:43;98868.31;;;16.37;0.00
23318;BME280;11831;55.918;37.746;2023-04-22T07:07:09;98874.28;;;15.74;0.00
23318;BME280;11831;55.918;37.746;2023-04-22T07:09:36;98871.63;;;15.64;0.00
23318;BME280;11831;55.918;37.746;2023-04-22T07:12:02;98875.56;;;15.97;0.00
23318;BME280;11831;55.918;37.746;2023-04-22T07:14:29;98876.75;;;15.66;0.00
23318;BME280;11831;55.918;37.746;2023-04-22T07:16:55;98881.22;;;15.91;0.00
23318;BME280;11831;55.918;37.746;2023-04-22T07:19:21;98883.19;;;15.70;0.00
23318;BME280;11831;55.918;37.746;2023-04-22T07:21:47;98872.53;;;16.09;0.00
23318;BME280;11831;55.918;37.746;2023-04-22T07:24:13;98881.84;;;15.57;0.00
23318;BME280;11831;55.918;37.746;2023-04-22T07:26:40;98884.50;;;15.77;0.00
23318;BME280;11831;55.918;37.746;2023-04-22T07:29:07;98872.44;;;15.65;0.00
23318;BME280;11831;55.918;37.746;2023-04-22T07:31:34;98873.75;;;15.57;0.00
23318;BME280;11831;55.918;37.746;2023-04-22T07:34:00;98876.97;;;15.79;0.00
23318;BME280;11831;55.918;37.746;2023-04-22T07:36:27;98874.84;;;15.56;0.00
23318;BME280;11831;55.918;37.746;2023-04-22T07:38:53;98880.22;;;15.71;0.00
23318;BME280;11831;55.918;37.746;2023-04-22T07:41:19;98881.94;;;16.11;0.00
23318;BME280;11831;55.918;37.746;2023-04-22T07:43:46;98881.66;;;16.13;0.00
23318;BME280;11831;55.918;37.746;2023-04-22T07:46:12;98883.50;;;16.72;0.00
23318;BME280;11831;55.918;37.746;2023-04-22T07:48:38;98879.63;;;16.83;0.00
23318;BME280;11831;55.918;37.746;2023-04-22T07:51:04;98882.81;;;16.90;0.00
23318;BME280;11831;55.918;37.746;2023-04-22T07:53:30;98879.75;;;16.68;0.00
23318;BME280;11831;55.918;37.746;2023-04-22T07:55:56;98884.56;;;17.63;0.00
23318;BME280;11831;55.918;37.746;2023-04-22T07:58:23;98874.28;;;17.36;0.00
23318;BME280;11831;55.918;37.746;2023-04-22T08:00:49;98874.47;;;17.21;0.00
23318;BME280;11831;55.918;37.746;2023-04-22T08:03:15;98882.78;;;17.24;0.00
23318;BME280;11831;55.918;37.746;2023-04-22T08:05:41;98870.25;;;18.10;0.00
23318;BME280;11831;55.918;37.746;2023-04-22T08:08:07;98874.56;;;18.11;0.00
23318;BME280;11831;55.918;37.746;2023-04-22T08:10:33;98880.06;;;18.01;0.00
23318;BME280;11831;55.918;37.746;2023-04-22T08:13:00;98881.16;;;18.00;0.00
23318;BME280;11831;55.918;37.746;2023-04-22T08:15:26;98885.81;;;18.18;0.00
23318;BME280;11831;55.918;37.746;2023-04-22T08:17:52;98878.06;;;18.49;0.00
23318;BME280;11831;55.918;37.746;2023-04-22T08:20:18;98883.25;;;18.27;0.00
23318;BME280;11831;55.918;37.746;2023-04-22T08:22:44;98882.22;;;18.23;0.00
23318;BME280;11831;55.918;37.746;2023-04-22T08:25:11;98888.94;;;18.68;0.00
23318;BME280;11831;55.918;37.746;2023-04-22T08:27:37;98882.69;;;18.49;0.00
23318;BME280;11831;55.918;37.746;2023-04-22T08:30:04;98886.53;;;18.24;0.00
23318;BME280;11831;55.918;37.746;2023-04-22T08:32:31;98889.06;;;17.73;0.00
23318;BME280;11831;55.918;37.746;2023-04-22T08:34:57;98872.81;;;17.78;0.00
23318;BME280;11831;55.918;37.746;2023-04-22T08:37:23;98885.84;;;18.37;0.00
23318;BME280;11831;55.918;37.746;2023-04-22T08:39:50;98881.44;;;18.22;0.00
23318;BME280;11831;55.918;37.746;2023-04-22T08:42:16;98881.25;;;18.75;0.00
23318;BME280;11831;55.918;37.746;2023-04-22T08:44:44;98888.81;;;18.54;0.00
23318;BME280;11831;55.918;37.746;2023-04-22T08:47:12;98885.31;;;18.91;0.00
23318;BME280;11831;55.918;37.746;2023-04-22T08:49:39;98895.06;;;17.64;0.00
23318;BME280;11831;55.918;37.746;2023-04-22T08:52:05;98882.59;;;18.35;0.00
23318;BME280;11831;55.918;37.746;2023-04-22T08:54:34;98878.22;;;17.78;0.00
23318;BME280;11831;55.918;37.746;2023-04-22T08:57:02;98883.72;;;17.67;0.00
23318;BME280;11831;55.918;37.746;2023-04-22T08:59:29;98881.34;;;18.27;0.00
23318;BME280;11831;55.918;37.746;2023-04-22T09:01:56;98876.69;;;19.49;0.00
23318;BME280;11831;55.918;37.746;2023-04-22T09:04:23;98879.66;;;19.94;0.00
23318;BME280;11831;55.918;37.746;2023-04-22T09:06:49;98879.81;;;19.29;0.00
23318;BME280;11831;55.918;37.746;2023-04-22T09:09:15;98877.78;;;20.44;0.00
23318;BME280;11831;55.918;37.746;2023-04-22T09:11:42;98881.22;;;20.72;0.00
23318;BME280;11831;55.918;37.746;2023-04-22T09:14:08;98867.50;;;20.55;0.00
23318;BME280;11831;55.918;37.746;2023-04-22T09:16:39;98869.47;;;20.27;0.00
23318;BME280;11831;55.918;37.746;2023-04-22T09:19:10;98869.47;;;20.13;0.00
23318;BME280;11831;55.918;37.746;2023-04-22T09:21:36;98862.50;;;19.11;0.00
23318;BME280;11831;55.918;37.746;2023-04-22T09:24:02;98852.81;;;18.35;0.00
23318;BME280;11831;55.918;37.746;2023-04-22T09:26:31;98869.97;;;17.88;0.00
23318;BME280;11831;55.918;37.746;2023-04-22T09:28:59;98875.81;;;17.47;0.00
23318;BME280;11831;55.918;37.746;2023-04-22T09:31:26;98870.34;;;17.81;0.00
23318;BME280;11831;55.918;37.746;2023-04-22T09:33:53;98870.50;;;17.90;0.00
23318;BME280;11831;55.918;37.746;2023-04-22T09:36:27;98861.81;;;17.69;0.00
23318;BME280;11831;55.918;37.746;2023-04-22T09:38:54;98864.53;;;18.49;0.00
23318;BME280;11831;55.918;37.746;2023-04-22T09:41:27;98870.00;;;19.01;0.00
23318;BME280;11831;55.918;37.746;2023-04-22T09:43:54;98858.88;;;19.16;0.00
23318;BME280;11831;55.918;37.746;2023-04-22T09:46:21;98864.06;;;19.45;0.00
23318;BME280;11831;55.918;37.746;2023-04-22T09:48:49;98856.22;;;18.97;0.00
23318;BME280;11831;55.918;37.746;2023-04-22T09:51:16;98860.53;;;19.31;0.00
23318;BME280;11831;55.918;37.746;2023-04-22T09:53:44;98869.56;;;19.40;0.00
23318;BME280;11831;55.918;37.746;2023-04-22T09:56:10;98862.94;;;18.29;0.00
23318;BME280;11831;55.918;37.746;2023-04-22T09:58:39;98859.00;;;18.41;0.00
23318;BME280;11831;55.918;37.746;2023-04-22T10:01:07;98864.69;;;18.20;0.00
23318;BME280;11831;55.918;37.746;2023-04-22T10:03:34;98868.34;;;18.11;0.00
23318;BME280;11831;55.918;37.746;2023-04-22T10:06:00;98869.28;;;18.20;0.00
23318;BME280;11831;55.918;37.746;2023-04-22T10:08:26;98864.44;;;17.98;0.00
23318;BME280;11831;55.918;37.746;2023-04-22T10:10:53;98869.12;;;17.63;0.00
23318;BME280;11831;55.918;37.746;2023-04-22T10:13:19;98860.72;;;17.70;0.00
23318;BME280;11831;55.918;37.746;2023-04-22T10:15:49;98861.47;;;17.76;0.00
23318;BME280;11831;55.918;37.746;2023-04-22T10:18:18;98858.81;;;17.71;0.00
23318;BME280;11831;55.918;37.746;2023-04-22T10:20:46;98864.87;;;17.57;0.00
23318;BME280;11831;55.918;37.746;2023-04-22T10:23:14;98862.97;;;17.87;0.00
23318;BME280;11831;55.918;37.746;2023-04-22T10:25:40;98854.84;;;17.87;0.00
23318;BME280;11831;55.918;37.746;2023-04-22T10:28:07;98859.47;;;19.13;0.00
23318;BME280;11831;55.918;37.746;2023-04-22T10:30:35;98855.38;;;19.15;0.00
23318;BME280;11831;55.918;37.746;2023-04-22T10:41:23;98858.81;;;18.88;0.00
23318;BME280;11831;55.918;37.746;2023-04-22T10:44:00;98851.78;;;18.87;0.00
23318;BME280;11831;55.918;37.746;2023-04-22T10:48:55;98852.66;;;19.62;0.00
23318;BME280;11831;55.918;37.746;2023-04-22T10:51:40;98857.97;;;19.80;0.00
23318;BME280;11831;55.918;37.746;2023-04-22T10:54:07;98845.88;;;21.17;0.00
23318;BME280;11831;55.918;37.746;2023-04-22T10:57:18;98858.56;;;21.53;0.00
23318;BME280;11831;55.918;37.746;2023-04-22T10:59:53;98840.53;;;21.34;0.00
23318;BME280;11831;55.918;37.746;2023-04-22T11:02:20;98849.28;;;21.54;0.00
23318;BME280;11831;55.918;37.746;2023-04-22T11:04:47;98849.06;;;20.30;0.00
23318;BME280;11831;55.918;37.746;2023-04-22T11:07:14;98849.91;;;19.34;0.00
23318;BME280;11831;55.918;37.746;2023-04-22T11:09:46;98852.06;;;19.18;0.00
23318;BME280;11831;55.918;37.746;2023-04-22T11:15:00;98850.16;;;21.41;0.00
23318;BME280;11831;55.918;37.746;2023-04-22T11:17:26;98852.59;;;21.99;41.50
23318;BME280;11831;55.918;37.746;2023-04-22T11:19:52;98848.53;;;22.97;0.00
23318;BME280;11831;55.918;37.746;2023-04-22T11:22:24;98840.72;;;23.80;0.00
23318;BME280;11831;55.918;37.746;2023-04-22T11:24:56;98848.34;;;24.45;0.00
23318;BME280;11831;55.918;37.746;2023-04-22T11:27:23;98844.06;;;25.92;37.94
23318;BME280;11831;55.918;37.746;2023-04-22T11:30:02;98839.72;;;23.84;38.41
23318;BME280;11831;55.918;37.746;2023-04-22T11:32:30;98834.66;;;23.74;35.67
23318;BME280;11831;55.918;37.746;2023-04-22T11:34:56;98830.25;;;22.62;38.28
23318;BME280;11831;55.918;37.746;2023-04-22T11:37:23;98826.22;;;23.50;38.47
23318;BME280;11831;55.918;37.746;2023-04-22T11:39:49;98840.22;;;25.12;38.08
23318;BME280;11831;55.918;37.746;2023-04-22T11:42:20;98822.91;;;26.17;36.81
23318;BME280;11831;55.918;37.746;2023-04-22T11:44:47;98834.25;;;27.12;34.64
23318;BME280;11831;55.918;37.746;2023-04-22T11:47:13;98828.84;;;25.22;0.00
23318;BME280;11831;55.918;37.746;2023-04-22T11:49:39;98834.25;;;23.84;36.66
23318;BME280;11831;55.918;37.746;2023-04-22T11:52:06;98824.66;;;24.08;39.67
23318;BME280;11831;55.918;37.746;2023-04-22T11:54:34;98827.97;;;25.66;36.02
23318;BME280;11831;55.918;37.746;2023-04-22T11:57:09;98829.75;;;27.35;34.38
23318;BME280;11831;55.918;37.746;2023-04-22T11:59:40;98819.31;;;27.88;34.52
23318;BME280;11831;55.918;37.746;2023-04-22T12:02:07;98830.19;;;27.37;34.13
23318;BME280;11831;55.918;37.746;2023-04-22T12:04:36;98816.88;;;28.57;36.38
23318;BME280;11831;55.918;37.746;2023-04-22T12:07:03;98819.25;;;28.97;32.58
23318;BME280;11831;55.918;37.746;2023-04-22T12:09:29;98826.06;;;29.72;32.05
23318;BME280;11831;55.918;37.746;2023-04-22T12:11:55;98825.03;;;29.11;30.22
23318;BME280;11831;55.918;37.746;2023-04-22T12:14:31;98817.63;;;31.51;28.89
23318;BME280;11831;55.918;37.746;2023-04-22T12:16:57;98816.66;;;31.77;27.70
23318;BME280;11831;55.918;37.746;2023-04-22T12:19:24;98814.03;;;31.92;27.40
23318;BME280;11831;55.918;37.746;2023-04-22T12:21:54;98809.44;;;33.43;27.32
23318;BME280;11831;55.918;37.746;2023-04-22T12:24:20;98803.03;;;32.82;28.76
23318;BME280;11831;55.918;37.746;2023-04-22T12:26:51;98795.44;;;29.50;32.26
23318;BME280;11831;55.918;37.746;2023-04-22T12:29:25;98796.22;;;27.26;34.16
23318;BME280;11831;55.918;37.746;2023-04-22T12:31:51;98801.84;;;29.12;35.96
23318;BME280;11831;55.918;37.746;2023-04-22T12:34:17;98795.28;;;29.43;33.17
23318;BME280;11831;55.918;37.746;2023-04-22T12:36:43;98799.41;;;29.53;31.96
23318;BME280;11831;55.918;37.746;2023-04-22T12:39:10;98794.50;;;30.52;30.87
23318;BME280;11831;55.918;37.746;2023-04-22T12:41:37;98793.28;;;30.16;27.99
23318;BME280;11831;55.918;37.746;2023-04-22T12:44:03;98780.03;;;30.96;30.78
23318;BME280;11831;55.918;37.746;2023-04-22T12:46:30;98784.41;;;31.00;32.70
23318;BME280;11831;55.918;37.746;2023-04-22T12:48:56;98803.00;;;30.06;29.44
23318;BME280;11831;55.918;37.746;2023-04-22T12:51:22;98789.81;;;32.43;29.88
23318;BME280;11831;55.918;37.746;2023-04-22T12:53:48;98803.22;;;31.25;31.91
23318;BME280;11831;55.918;37.746;2023-04-22T12:56:14;98799.88;;;31.52;31.21
23318;BME280;11831;55.918;37.746;2023-04-22T12:58:40;98791.59;;;32.07;30.29
23318;BME280;11831;55.918;37.746;2023-04-22T13:01:06;98799.91;;;33.16;26.91
23318;BME280;11831;55.918;37.746;2023-04-22T13:03:32;98770.31;;;31.09;29.55
23318;BME280;11831;55.918;37.746;2023-04-22T13:05:58;98797.09;;;28.70;29.00
23318;BME280;11831;55.918;37.746;2023-04-22T13:08:25;98800.00;;;28.58;34.23
23318;BME280;11831;55.918;37.746;2023-04-22T13:10:52;98801.88;;;26.89;34.14
23318;BME280;11831;55.918;37.746;2023-04-22T13:13:18;98793.47;;;26.14;35.04
23318;BME280;11831;55.918;37.746;2023-04-22T13:15:47;98790.66;;;26.95;35.16